Time;durP1;ratioP1;P1;durP2;ratioP2;P2;SDS_P1;SDS_P2;PMS_P1;PMS_P2;Temp;Humidity;BMP_temperature;BMP_pressure;BME280_temperature;BME280_humidity;BME280_pressure;Samples;Min_cycle;Max_cycle;Signal;HPM_P1;HPM_P2
2021/04/11 00:00:41;;;;;;;4.45;3.50;;;9.70;99.90;;;10.66;92.74;99706.19;4999891;28;20022;-84
2021/04/11 00:03:14;;;;;;;9.35;4.10;;;9.70;99.90;;;10.63;93.01;99702.13;5014848;28;20034;-82
2021/04/11 00:05:43;;;;;;;9.85;4.55;;;9.70;99.90;;;10.71;92.38;99703.84;5013718;28;20026;-84
2021/04/11 00:08:13;;;;;;;6.05;3.70;;;9.70;99.90;;;10.70;92.85;99701.41;5018056;28;20030;-83
2021/04/11 00:10:48;;;;;;;8.75;3.40;;;9.70;99.90;;;10.55;92.92;99694.88;5027460;28;20022;-86
2021/04/11 00:13:29;;;;;;;7.70;3.38;;;9.70;99.90;;;10.53;93.14;99686.88;5008746;28;20022;-84
2021/04/11 00:15:56;;;;;;;4.63;3.55;;;9.70;99.90;;;10.57;92.70;99698.06;5009774;28;20390;-82
2021/04/11 00:18:22;;;;;;;6.85;3.88;;;9.70;99.90;;;10.57;93.22;99684.13;4992259;28;20026;-85
2021/04/11 00:20:49;;;;;;;5.47;4.15;;;9.70;99.90;;;10.55;93.34;99683.72;4993442;28;20357;-84
2021/04/11 00:23:18;;;;;;;6.05;3.40;;;9.70;99.90;;;10.48;93.68;99673.25;4993016;28;20080;-86
2021/04/11 00:25:45;;;;;;;5.10;3.70;;;9.60;99.90;;;10.50;93.74;99676.47;4997420;28;20022;-84
2021/04/11 00:28:14;;;;;;;6.75;3.92;;;9.60;99.90;;;10.48;93.73;99676.06;5034266;28;20037;-82
2021/04/11 00:30:41;;;;;;;5.18;3.15;;;9.60;99.90;;;10.52;93.56;99670.50;5009921;28;20031;-84
2021/04/11 00:33:26;;;;;;;8.07;3.80;;;9.60;99.90;;;10.48;93.47;99669.66;5011012;28;20037;-82
2021/04/11 00:36:06;;;;;;;6.40;3.83;;;9.60;99.90;;;10.45;94.22;99664.84;5029854;28;20022;-84
2021/04/11 00:38:33;;;;;;;9.18;3.75;;;9.60;99.90;;;10.44;94.01;99663.22;5030334;28;20030;-85
2021/04/11 00:41:19;;;;;;;7.82;3.45;;;9.60;99.90;;;10.50;93.74;99656.91;5030447;28;20034;-81
2021/04/11 00:43:47;;;;;;;6.63;3.40;;;9.60;99.90;;;10.42;93.53;99648.84;5030519;28;20151;-84
2021/04/11 00:46:45;;;;;;;6.97;3.97;;;9.60;99.90;;;10.43;93.71;99651.28;5030506;28;20437;-84
2021/04/11 00:49:25;;;;;;;6.05;3.88;;;9.60;99.90;;;10.50;93.65;99644.94;5030859;28;20018;-85
2021/04/11 00:51:52;;;;;;;5.97;3.97;;;9.60;99.90;;;10.45;93.49;99656.47;5015618;28;20037;-85
2021/04/11 00:54:19;;;;;;;5.07;3.85;;;9.60;99.90;;;10.47;93.43;99656.88;5031913;28;20033;-84
2021/04/11 00:56:46;;;;;;;9.18;4.07;;;9.70;99.90;;;10.48;93.61;99644.53;5017189;28;20046;-84
2021/04/11 00:59:14;;;;;;;7.03;3.90;;;9.70;99.90;;;10.65;92.47;99646.72;5033085;28;20486;-86
2021/04/11 01:01:41;;;;;;;9.02;4.20;;;9.60;99.90;;;10.64;92.60;99645.13;5042703;28;20037;-84
2021/04/11 01:04:17;;;;;;;8.95;4.10;;;9.70;99.90;;;10.66;92.83;99639.94;5027843;28;20030;-83
2021/04/11 01:06:58;;;;;;;7.78;3.90;;;9.70;99.90;;;10.53;93.01;99642.19;5020152;28;20486;-85
2021/04/11 01:09:34;;;;;;;5.32;3.70;;;9.60;99.90;;;10.60;92.74;99635.88;5028083;28;20037;-86
2021/04/11 01:12:07;;;;;;;7.47;3.92;;;9.70;99.90;;;10.66;91.77;99639.94;5011727;28;20026;-83
2021/04/11 01:14:38;;;;;;;6.38;3.65;;;9.70;99.90;;;10.65;92.37;99631.97;5019937;28;20339;-82
2021/04/11 01:17:17;;;;;;;7.43;4.63;;;9.70;99.90;;;10.65;92.55;99627.19;5027837;28;20053;-85
2021/04/11 01:19:49;;;;;;;5.85;4.05;;;9.70;99.90;;;10.59;92.83;99629.50;5029210;28;20429;-85
2021/04/11 01:23:03;;;;;;;6.50;4.35;;;9.70;99.90;;;10.52;93.02;99621.06;5014598;28;20108;-81
2021/04/11 01:25:34;;;;;;;6.38;4.20;;;9.70;99.90;;;10.55;92.98;99616.69;5033964;28;20030;-83
2021/04/11 01:28:16;;;;;;;6.75;4.28;;;9.80;99.90;;;10.61;92.49;99617.97;5017869;28;20030;-84
2021/04/11 01:30:45;;;;;;;10.05;4.72;;;9.80;99.90;;;10.50;93.53;99614.22;5033246;28;20026;-79
2021/04/11 01:33:27;;;;;;;8.45;4.20;;;9.80;99.90;;;10.52;94.00;99615.47;5014420;28;20132;-79
2021/04/11 01:35:57;;;;;;;6.10;4.40;;;9.80;99.90;;;10.59;93.26;99620.34;4998347;28;20022;-85
2021/04/11 01:38:27;;;;;;;5.88;3.88;;;9.70;99.90;;;10.64;92.75;99617.19;5003804;28;20022;-84
2021/04/11 01:41:29;;;;;;;6.32;4.13;;;9.80;99.90;;;10.55;93.42;99623.09;5010928;28;20054;-82
2021/04/11 01:43:56;;;;;;;7.22;4.22;;;9.80;99.90;;;10.55;94.00;99613.91;5010456;28;20038;-85
2021/04/11 01:46:25;;;;;;;6.07;4.32;;;9.70;99.90;;;10.57;93.54;99611.53;5010368;28;20144;-84
2021/04/11 01:48:54;;;;;;;6.78;4.65;;;9.80;99.90;;;10.59;93.02;99618.31;5010489;28;20486;-83
2021/04/11 01:51:32;;;;;;;5.55;4.43;;;9.80;99.90;;;10.79;92.17;99610.56;5010557;28;20117;-83
2021/04/11 01:54:08;;;;;;;5.72;4.03;;;9.90;99.90;;;10.75;92.33;99606.13;5010588;28;20084;-82
2021/04/11 01:56:34;;;;;;;5.47;4.20;;;9.80;99.90;;;10.71;92.59;99614.47;5017009;28;20486;-83
2021/04/11 01:59:00;;;;;;;7.03;3.97;;;9.80;99.90;;;10.69;92.54;99599.28;5013020;28;20093;-83
2021/04/11 02:01:32;;;;;;;8.23;4.07;;;9.80;99.90;;;10.65;93.14;99595.66;5010133;28;20390;-85
2021/04/11 02:04:04;;;;;;;7.25;4.38;;;9.70;99.90;;;10.70;92.84;99593.31;5010464;28;20093;-82
2021/04/11 02:06:36;;;;;;;6.13;3.80;;;9.80;99.90;;;10.64;92.76;99602.41;5010384;28;20096;-80
2021/04/11 02:09:17;;;;;;;7.75;4.15;;;9.80;99.90;;;10.64;92.55;99586.47;5024106;28;20076;-83
2021/04/11 02:11:46;;;;;;;5.38;4.07;;;9.80;99.90;;;10.78;92.48;99581.03;5030549;28;20437;-85
2021/04/11 02:14:13;;;;;;;7.18;4.80;;;9.80;99.90;;;10.74;92.40;99582.97;5014252;28;20030;-80
2021/04/11 02:16:39;;;;;;;4.97;4.30;;;9.80;99.90;;;10.68;93.15;99581.72;5029286;28;20044;-83
2021/04/11 02:19:18;;;;;;;7.13;4.68;;;9.80;99.90;;;10.67;93.25;99580.13;5014245;28;20045;-85
2021/04/11 02:21:53;;;;;;;7.00;4.15;;;9.80;99.90;;;10.74;93.09;99585.78;5014125;28;20033;-79
2021/04/11 02:24:20;;;;;;;8.57;4.78;;;9.70;99.90;;;10.73;92.74;99586.16;5005038;28;20030;-84
2021/04/11 02:26:46;;;;;;;5.20;4.00;;;9.70;99.90;;;10.75;92.62;99581.00;5016716;28;20026;-83
2021/04/11 02:29:22;;;;;;;6.03;3.90;;;9.70;99.90;;;10.71;92.82;99578.16;5014218;28;20046;-80
2021/04/11 02:31:49;;;;;;;6.10;3.75;;;9.80;99.90;;;10.78;92.30;99567.06;5012876;28;20034;-83
2021/04/11 02:34:25;;;;;;;4.63;3.58;;;9.80;99.90;;;10.70;92.93;99570.16;5011436;28;20125;-83
2021/04/11 02:37:01;;;;;;;;;;;9.80;99.90;;;10.76;92.50;99579.78;5029627;28;20030;-85
2021/04/11 02:39:35;;;;;;;5.07;3.60;;;9.90;99.90;;;10.73;92.75;99575.78;5012811;28;20300;-86
2021/04/11 02:42:20;;;;;;;4.45;3.70;;;9.80;99.90;;;10.73;92.33;99574.97;5035661;28;20022;-85
2021/04/11 02:44:51;;;;;;;8.85;4.43;;;9.80;99.90;;;10.72;92.55;99571.41;5044883;28;20026;-82
2021/04/11 02:47:17;;;;;;;8.15;4.15;;;9.80;99.90;;;10.81;92.48;99563.50;5029773;28;20044;-83
2021/04/11 02:49:50;;;;;;;5.75;4.40;;;9.80;99.90;;;10.76;93.11;99563.84;5013806;28;20084;-84
2021/04/11 02:52:39;;;;;;;7.32;4.40;;;9.80;99.90;;;10.85;92.35;99564.31;5028805;28;20492;-83
2021/04/11 02:55:12;;;;;;;6.38;4.25;;;9.90;99.90;;;10.89;92.44;99567.13;5014082;28;20022;-85
2021/04/11 02:57:38;;;;;;;7.13;3.95;;;9.80;99.90;;;10.84;92.75;99559.94;5028766;28;20147;-85
2021/04/11 03:00:14;;;;;;;5.28;4.25;;;9.80;99.90;;;10.84;93.13;99561.91;5012258;28;20053;-83
2021/04/11 03:02:40;;;;;;;6.28;3.97;;;9.80;99.90;;;10.82;92.56;99562.28;5028561;28;20022;-84
2021/04/11 03:05:10;;;;;;;8.70;4.65;;;9.80;99.90;;;10.83;92.77;99558.31;5028908;28;20133;-85
2021/04/11 03:07:57;;;;;;;6.45;4.53;;;9.80;99.90;;;10.83;92.90;99568.69;5028880;28;20053;-80
2021/04/11 03:10:37;;;;;;;6.78;3.88;;;9.80;99.90;;;10.88;92.48;99559.97;5035095;28;20042;-85
2021/04/11 03:13:06;;;;;;;7.18;3.67;;;9.80;99.90;;;10.95;92.00;99569.19;5040764;28;20516;-86
2021/04/11 03:15:34;;;;;;;5.03;3.85;;;9.80;99.90;;;10.87;92.37;99567.53;5026152;28;20026;-84
2021/04/11 03:18:01;;;;;;;7.05;4.28;;;9.80;99.90;;;10.84;92.72;99571.09;5026088;28;20370;-80
2021/04/11 03:20:47;;;;;;;7.00;3.90;;;9.80;99.90;;;10.83;92.89;99577.88;5020435;28;20033;-84
2021/04/11 03:23:17;;;;;;;5.10;3.90;;;9.90;99.90;;;10.82;92.97;99581.06;5029082;28;20065;-84
2021/04/11 03:25:43;;;;;;;6.43;4.05;;;9.90;99.90;;;10.92;92.65;99572.75;5013208;28;20218;-84
2021/04/11 03:28:33;;;;;;;10.43;4.70;;;9.90;99.90;;;11.01;92.29;99583.63;5023004;28;20037;-82
2021/04/11 03:31:22;;;;;;;6.13;3.78;;;10.00;99.90;;;10.95;93.29;99588.75;5010310;28;20448;-83
2021/04/11 03:33:59;;;;;;;8.25;4.43;;;10.00;99.90;;;10.92;94.18;99589.53;5013112;28;20038;-84
2021/04/11 03:36:27;;;;;;;7.22;4.80;;;10.00;99.90;;;10.99;94.34;99603.56;5028826;28;20533;-85
2021/04/11 03:38:56;;;;;;;7.03;5.65;;;9.90;99.90;;;11.03;94.21;99614.75;5028364;28;20036;-83
2021/04/11 03:41:22;;;;;;;10.30;7.60;;;9.90;99.90;;;10.90;95.29;99622.63;5028553;28;20029;-85
2021/04/11 03:43:57;;;;;;;14.05;10.38;;;9.80;99.90;;;10.74;95.42;99643.63;5027997;28;20045;-81
2021/04/11 03:46:45;;;;;;;20.57;14.40;;;9.70;99.90;;;10.51;95.86;99639.00;5028663;28;20030;-84
2021/04/11 03:49:39;;;;;;;22.20;15.60;;;9.50;99.90;;;10.41;95.68;99648.03;5028107;28;20538;-85
2021/04/11 03:52:23;;;;;;;22.33;15.93;;;9.30;99.90;;;10.20;95.86;99641.41;5013047;28;20060;-84
2021/04/11 03:54:49;;;;;;;22.85;16.23;;;9.20;99.90;;;10.07;95.11;99650.00;5028353;28;20033;-83
2021/04/11 03:57:24;;;;;;;21.08;15.63;;;9.00;99.90;;;9.89;95.79;99654.53;5028455;28;20038;-81
2021/04/11 04:00:07;;;;;;;21.47;16.00;;;8.80;99.90;;;9.74;96.03;99649.94;5012791;28;20026;-86
2021/04/11 04:02:42;;;;;;;17.10;12.90;;;8.70;99.90;;;9.69;96.26;99663.41;5028157;28;20279;-84
2021/04/11 04:05:19;;;;;;;16.58;11.68;;;8.60;99.90;;;9.48;95.80;99667.47;5028573;28;20055;-83
2021/04/11 04:07:53;;;;;;;9.25;6.68;;;8.50;99.90;;;9.10;94.88;99676.00;5025254;28;20030;-84
2021/04/11 04:10:29;;;;;;;7.03;6.30;;;8.20;99.90;;;8.95;95.15;99677.72;4999347;28;20113;-84
2021/04/11 04:12:57;;;;;;;;;;;8.10;99.90;;;8.93;95.41;99682.03;5020455;28;20026;-84
2021/04/11 04:16:26;;;;;;;7.32;6.40;;;7.90;99.90;;;8.76;95.71;99690.91;5012869;28;20263;-82
2021/04/11 04:19:34;;;;;;;6.57;5.88;;;7.80;99.90;;;8.61;95.25;99684.22;4996098;28;20356;-85
2021/04/11 04:22:30;;;;;;;9.07;6.97;;;7.70;99.90;;;8.57;95.43;99696.47;5012606;28;20026;-82
2021/04/11 04:25:42;;;;;;;8.38;7.13;;;7.60;99.90;;;8.54;96.31;99697.22;5012644;28;20088;-84
2021/04/11 04:29:08;;;;;;;8.45;7.25;;;7.50;99.90;;;8.45;96.73;99697.44;5010991;28;20037;-86
2021/04/11 04:32:04;;;;;;;11.23;7.80;;;7.50;99.90;;;8.22;95.87;99694.53;4972372;28;20040;-81
2021/04/11 04:35:17;;;;;;;9.65;7.82;;;7.40;99.90;;;8.26;96.04;99708.53;5011029;28;20030;-83
2021/04/11 04:38:54;;;;;;;10.90;8.32;;;7.20;99.90;;;8.15;95.66;99704.72;5012435;28;20393;-84
2021/04/11 04:41:47;;;;;;;10.45;8.45;;;7.10;99.90;;;8.12;94.53;99709.06;5011396;28;20371;-84
2021/04/11 04:45:15;;;;;;;10.02;8.02;;;7.10;99.90;;;7.95;95.12;99723.34;5027828;28;20121;-83
2021/04/11 04:48:27;;;;;;;12.43;9.85;;;7.00;99.90;;;7.91;95.47;99730.81;5012062;28;20409;-83
2021/04/11 04:51:09;;;;;;;11.88;9.43;;;6.90;99.90;;;7.82;95.66;99724.63;5028250;28;20034;-84
2021/04/11 04:53:56;;;;;;;12.68;9.60;;;6.80;99.90;;;7.87;95.52;99722.38;5028541;28;20098;-84
2021/04/11 04:56:37;;;;;;;11.23;8.93;;;6.80;99.90;;;7.85;95.76;99723.91;5015560;28;20153;-84
2021/04/11 04:59:25;;;;;;;12.30;9.65;;;6.80;99.90;;;7.82;95.98;99725.44;5046500;28;20045;-82
2021/04/11 05:02:24;;;;;;;10.45;9.10;;;6.80;99.90;;;7.76;95.44;99729.69;5034658;28;20084;-82
2021/04/11 05:05:02;;;;;;;11.73;9.40;;;6.70;99.90;;;7.79;95.80;99723.41;5014416;28;20049;-86
2021/04/11 05:07:41;;;;;;;10.35;9.23;;;6.70;99.90;;;7.75;95.37;99728.06;5014729;28;20045;-86
2021/04/11 05:10:26;;;;;;;10.70;8.38;;;6.70;99.90;;;7.75;95.38;99739.19;5011901;28;20026;-85
2021/04/11 05:13:21;;;;;;;11.75;8.95;;;6.60;99.90;;;7.72;95.54;99731.56;5012198;28;20034;-84
2021/04/11 05:16:08;;;;;;;14.38;10.27;;;6.60;99.90;;;7.61;95.71;99726.94;4995377;28;20105;-87
2021/04/11 05:18:43;;;;;;;13.65;10.82;;;6.60;99.90;;;7.53;95.26;99737.06;5014877;28;20036;-85
2021/04/11 05:21:31;;;;;;;13.90;10.80;;;6.50;99.90;;;7.44;95.52;99736.44;5004573;28;20026;-83
2021/04/11 05:24:13;;;;;;;15.00;11.85;;;6.50;99.90;;;7.29;95.55;99735.25;5024138;28;20188;-83
2021/04/11 05:26:58;;;;;;;14.32;11.48;;;6.40;99.90;;;7.31;95.65;99748.81;5022566;28;20033;-82
2021/04/11 05:29:48;;;;;;;15.30;11.25;;;6.40;99.90;;;7.35;95.48;99763.59;5023653;28;20484;-83
2021/04/11 05:32:16;;;;;;;22.95;14.50;;;6.30;99.90;;;7.22;95.57;99767.63;5014743;28;20034;-84
2021/04/11 05:34:43;;;;;;;19.13;13.90;;;6.30;99.90;;;6.99;95.50;99774.91;5032324;28;20026;-83
2021/04/11 05:37:26;;;;;;;17.85;13.07;;;6.10;99.90;;;6.92;95.61;99777.50;5031469;28;20057;-83
2021/04/11 05:40:17;;;;;;;17.38;12.60;;;6.10;99.90;;;6.83;95.91;99764.59;5030379;28;20034;-81
2021/04/11 05:43:20;;;;;;;18.65;13.85;;;6.00;99.90;;;6.85;95.86;99783.66;5028109;28;20030;-84
2021/04/11 05:46:22;;;;;;;20.13;14.38;;;5.90;99.90;;;6.88;95.87;99789.31;5007620;28;20056;-84
2021/04/11 05:49:18;;;;;;;19.33;14.13;;;5.90;99.90;;;6.84;95.63;99799.50;5010792;28;20037;-81
2021/04/11 05:52:14;;;;;;;20.67;14.70;;;5.90;99.90;;;6.80;95.51;99800.56;5011046;28;20122;-82
2021/04/11 05:54:57;;;;;;;18.35;13.52;;;5.80;99.90;;;6.83;95.23;99802.66;4997684;28;20125;-83
2021/04/11 05:57:41;;;;;;;15.80;12.55;;;5.80;99.90;;;6.75;94.89;99818.28;4996032;28;20027;-84
2021/04/11 06:00:18;;;;;;;18.10;13.07;;;5.80;99.90;;;6.73;94.94;99825.34;5010776;28;20466;-84
2021/04/11 06:02:57;;;;;;;18.15;12.57;;;5.70;99.90;;;6.70;94.22;99815.75;5014743;28;20033;-85
2021/04/11 06:06:12;;;;;;;19.63;13.45;;;5.80;99.90;;;6.65;95.18;99823.50;5024616;28;20030;-83
2021/04/11 06:09:20;;;;;;;20.48;13.95;;;5.70;99.90;;;6.58;94.21;99842.75;5004986;28;20038;-85
2021/04/11 06:12:07;;;;;;;20.52;15.15;;;5.60;99.90;;;6.50;94.85;99852.00;5009515;28;20042;-83
2021/04/11 06:15:05;;;;;;;25.60;17.00;;;5.50;99.90;;;6.40;94.95;99849.69;5011655;28;20117;-79
2021/04/11 06:17:31;;;;;;;21.80;14.60;;;5.50;99.90;;;6.29;94.23;99849.38;5011890;28;20340;-83
2021/04/11 06:19:58;;;;;;;24.88;16.20;;;5.40;99.90;;;6.38;95.11;99847.28;4996339;28;20494;-84
2021/04/11 06:23:18;;;;;;;23.55;16.33;;;5.40;99.90;;;6.38;94.71;99843.72;5011439;28;20473;-83
2021/04/11 06:26:11;;;;;;;23.48;16.05;;;5.40;99.90;;;6.51;94.92;99861.94;5011572;28;20384;-84
2021/04/11 06:29:13;;;;;;;24.80;16.67;;;5.40;99.90;;;6.57;94.83;99869.66;5011458;28;20120;-84
2021/04/11 06:32:21;;;;;;;25.23;16.05;;;5.50;99.90;;;6.54;94.67;99878.69;5011073;28;20429;-84
2021/04/11 06:35:06;;;;;;;26.52;18.45;;;5.50;99.90;;;6.52;94.47;99874.66;5004232;28;20026;-80
2021/04/11 06:37:38;;;;;;;29.20;20.23;;;5.50;99.90;;;6.50;93.21;99883.31;5008559;28;20096;-84
2021/04/11 06:40:29;;;;;;;33.25;21.77;;;5.40;99.90;;;6.28;94.24;99887.41;5030392;28;20468;-84
2021/04/11 06:43:37;;;;;;;32.70;20.83;;;5.40;99.90;;;6.26;94.67;99895.25;5029968;28;20037;-85
2021/04/11 06:46:50;;;;;;;30.63;19.83;;;5.40;99.90;;;6.29;94.87;99904.84;5014781;28;20030;-85
2021/04/11 06:49:30;;;;;;;31.02;20.02;;;5.40;99.90;;;6.21;94.76;99920.44;5013991;28;20030;-84
2021/04/11 06:52:46;;;;;;;33.25;22.00;;;5.30;99.90;;;6.14;94.20;99924.94;5010749;28;20041;-84
2021/04/11 06:55:54;;;;;;;33.83;22.92;;;5.20;99.90;;;6.10;94.55;99918.50;5012984;28;20030;-83
2021/04/11 06:59:19;;;;;;;36.35;24.05;;;5.20;99.90;;;6.04;95.54;99917.88;5012981;28;20029;-84
2021/04/11 07:03:00;;;;;;;38.85;23.63;;;5.10;99.90;;;5.91;95.93;99921.00;5029292;28;20041;-85
2021/04/11 07:05:56;;;;;;;43.85;26.80;;;5.10;99.90;;;5.95;95.72;99922.72;5029437;28;20041;-84
2021/04/11 07:09:09;;;;;;;39.65;25.40;;;5.00;99.90;;;5.76;95.90;99927.97;5028645;28;20022;-82
2021/04/11 07:12:36;;;;;;;40.35;25.80;;;4.90;99.90;;;5.69;97.09;99927.72;5029943;28;20030;-86
2021/04/11 07:16:10;;;;;;;46.85;27.23;;;4.90;99.90;;;5.70;96.99;99935.72;5024154;28;20033;-84
2021/04/11 07:19:08;;;;;;;51.50;27.40;;;4.90;99.90;;;5.75;96.55;99934.66;5035676;28;20040;-83
2021/04/11 07:22:26;;;;;;;54.80;29.95;;;4.90;99.90;;;5.59;97.02;99939.25;5029351;28;20030;-84
2021/04/11 07:25:23;;;;;;;;;;;4.80;99.90;;;5.69;96.52;99947.94;5014918;28;20034;-84
2021/04/11 07:28:26;;;;;;;53.63;28.63;;;4.80;99.90;;;5.53;97.27;99949.75;5012836;28;20008;-83
2021/04/11 07:31:50;;;;;;;53.97;28.48;;;4.70;99.90;;;5.44;97.16;99945.44;5030071;28;20030;-83
2021/04/11 07:34:49;;;;;;;57.33;29.65;;;4.70;99.90;;;5.55;97.41;99949.41;5028996;28;20486;-83
2021/04/11 07:37:57;;;;;;;55.28;30.77;;;4.70;99.90;;;5.46;96.56;99949.47;5013772;28;20159;-81
2021/04/11 07:40:56;;;;;;;58.25;30.92;;;4.70;99.90;;;5.52;96.45;99948.13;4994501;28;20056;-85
2021/04/11 07:44:01;;;;;;;46.78;26.75;;;4.70;99.90;;;5.50;96.30;99941.31;5029696;28;20030;-83
2021/04/11 07:47:01;;;;;;;46.08;26.10;;;4.70;99.90;;;5.59;95.47;99955.88;5013652;28;20481;-83
2021/04/11 07:50:00;;;;;;;41.58;23.40;;;4.70;99.90;;;5.43;95.70;99960.44;5002062;28;20029;-83
2021/04/11 07:53:19;;;;;;;45.08;23.52;;;4.60;99.90;;;5.52;95.05;99964.72;5027189;28;20563;-83
2021/04/11 07:57:08;;;;;;;42.60;22.98;;;4.60;99.90;;;5.66;95.10;99976.34;5029351;28;20032;-82
2021/04/11 07:59:38;;;;;;;;;;;4.70;99.90;;;5.57;94.53;99991.41;5006620;28;20038;-83
2021/04/11 08:02:52;;;;;;;39.00;21.98;;;4.70;99.90;;;5.42;94.97;99994.81;5012965;28;19916;-81
2021/04/11 08:06:27;;;;;;;42.35;24.23;;;4.60;99.90;;;5.41;96.05;99996.78;5009346;28;20040;-85
2021/04/11 08:09:29;;;;;;;47.25;24.73;;;4.50;99.90;;;5.31;95.15;99994.44;5018987;28;20140;-86
2021/04/11 08:12:35;;;;;;;49.03;26.70;;;4.50;99.90;;;5.41;95.65;100002.31;5011365;28;20022;-87
2021/04/11 08:15:24;;;;;;;40.88;23.35;;;4.50;99.90;;;5.43;95.22;100004.72;5003949;28;20088;-84
2021/04/11 08:18:25;;;;;;;46.17;25.17;;;4.50;99.90;;;5.41;95.00;100018.94;5005930;28;20042;-83
2021/04/11 08:21:36;;;;;;;45.72;24.67;;;4.50;99.90;;;5.53;95.16;100018.97;5032182;28;20033;-79
2021/04/11 08:24:29;;;;;;;40.50;22.20;;;4.60;99.90;;;5.69;94.14;100017.19;5021426;28;20028;-79
2021/04/11 08:27:37;;;;;;;40.78;24.02;;;4.70;99.90;;;5.79;94.39;100032.59;5021852;28;20038;-81
2021/04/11 08:30:48;;;;;;;33.08;18.65;;;4.80;99.90;;;5.71;92.58;100025.19;5033990;28;20039;-81
2021/04/11 08:33:55;;;;;;;30.38;18.25;;;4.80;99.90;;;5.72;92.70;100029.56;5002910;28;20276;-86
2021/04/11 08:37:32;;;;;;;22.38;14.98;;;4.80;99.90;;;5.76;92.44;100023.00;5012481;28;20482;-84
2021/04/11 08:40:32;;;;;;;19.70;12.02;;;4.80;99.90;;;5.91;91.50;100040.97;5000122;28;20030;-83
2021/04/11 08:43:21;;;;;;;23.95;15.15;;;4.90;99.90;;;5.98;91.88;100048.72;5010914;28;20088;-82
2021/04/11 08:46:14;;;;;;;19.60;13.00;;;5.00;99.90;;;5.88;92.17;100049.97;5011032;28;20148;-84
2021/04/11 08:49:04;;;;;;;10.55;8.30;;;5.00;99.90;;;5.91;91.48;100052.06;5020850;28;20033;-84
2021/04/11 08:52:10;;;;;;;11.93;7.80;;;5.00;99.90;;;5.94;91.64;100059.69;5016055;28;20072;-85
2021/04/11 08:54:50;;;;;;;10.82;7.78;;;5.00;99.90;;;6.04;91.82;100069.53;5016066;28;20373;-83
2021/04/11 08:58:02;;;;;;;9.95;7.22;;;5.00;99.90;;;6.00;91.63;100074.97;5016947;28;20040;-84
2021/04/11 09:00:57;;;;;;;9.80;8.30;;;5.00;99.90;;;6.01;91.34;100071.03;5003493;28;20045;-85
2021/04/11 09:03:50;;;;;;;9.27;6.80;;;5.00;99.90;;;5.78;91.56;100076.13;5011275;28;20122;-83
2021/04/11 09:07:14;;;;;;;10.38;7.20;;;4.90;99.90;;;5.68;91.95;100072.97;5012812;28;20071;-85
2021/04/11 09:10:17;;;;;;;10.48;7.95;;;4.80;99.90;;;5.76;92.04;100095.06;5027043;28;20028;-84
2021/04/11 09:13:41;;;;;;;11.20;7.82;;;4.80;99.90;;;5.56;92.27;100093.09;5019367;28;20536;-85
2021/04/11 09:16:54;;;;;;;8.32;6.50;;;4.70;99.90;;;5.50;92.30;100099.19;5019933;28;20037;-84
2021/04/11 09:19:26;;;;;;;9.15;6.60;;;4.70;99.90;;;5.47;92.68;100111.75;5012822;28;20034;-84
2021/04/11 09:22:29;;;;;;;10.73;8.48;;;4.60;99.90;;;5.52;92.65;100107.97;5017357;28;20047;-85
2021/04/11 09:25:26;;;;;;;13.68;8.48;;;4.70;99.90;;;5.46;93.09;100118.44;4996601;28;20046;-84
2021/04/11 09:28:44;;;;;;;14.15;8.85;;;4.60;99.90;;;5.52;93.13;100119.06;5012748;28;20030;-85
2021/04/11 09:31:32;;;;;;;9.93;6.82;;;4.60;99.90;;;5.60;93.27;100120.94;5031854;28;20030;-84
2021/04/11 09:34:47;;;;;;;7.65;6.15;;;4.60;99.90;;;5.67;92.71;100123.97;5031893;28;20030;-87
2021/04/11 09:37:57;;;;;;;9.27;5.95;;;4.70;99.90;;;5.84;92.35;100132.94;5015968;28;20038;-84
2021/04/11 09:41:03;;;;;;;7.32;5.97;;;4.80;99.90;;;6.05;92.11;100134.94;5014227;28;20053;-86
2021/04/11 09:44:21;;;;;;;6.97;4.20;;;4.90;99.90;;;6.05;90.91;100146.00;5014606;28;20041;-82
2021/04/11 09:47:22;;;;;;;7.47;4.57;;;5.00;99.90;;;5.79;89.87;100135.94;5014692;28;20048;-84
2021/04/11 09:50:23;;;;;;;6.20;5.20;;;4.90;99.90;;;5.93;90.73;100148.75;5018987;28;20398;-88
2021/04/11 09:53:59;;;;;;;7.40;5.18;;;4.90;99.90;;;6.11;90.64;100152.97;5031866;28;20045;-85
2021/04/11 09:57:03;;;;;;;6.72;4.22;;;5.00;99.90;;;6.13;89.92;100164.56;5013443;28;20034;-85
2021/04/11 09:59:48;;;;;;;4.75;3.97;;;5.10;99.90;;;5.78;88.17;100158.44;5013034;28;20100;-84
2021/04/11 10:02:44;;;;;;;5.55;4.40;;;4.90;99.90;;;5.89;89.93;100167.19;5029311;28;20026;-85
2021/04/11 10:05:59;;;;;;;6.82;4.47;;;4.90;99.90;;;5.78;89.50;100163.97;5013524;28;20114;-86
2021/04/11 10:09:00;;;;;;;5.15;4.40;;;4.80;99.90;;;5.81;90.12;100172.44;5004819;28;20189;-82
2021/04/11 10:11:37;;;;;;;5.28;4.25;;;4.80;99.90;;;5.76;89.68;100180.13;5010296;28;20351;-86
2021/04/11 10:14:22;;;;;;;4.78;4.13;;;4.80;99.90;;;5.76;89.25;100172.63;5009770;28;20030;-85
2021/04/11 10:17:24;;;;;;;8.18;6.53;;;4.80;99.90;;;5.96;89.46;100175.78;4994567;28;20474;-85
2021/04/11 10:20:22;;;;;;;5.55;4.78;;;4.90;99.90;;;5.88;88.98;100183.00;4993291;28;20442;-86
2021/04/11 10:23:07;;;;;;;5.30;3.70;;;4.90;99.90;;;5.90;88.18;100185.44;4993453;28;20054;-85
2021/04/11 10:26:12;;;;;;;5.00;3.72;;;4.90;99.90;;;5.82;88.04;100173.25;5010977;28;20026;-84
2021/04/11 10:28:55;;;;;;;5.10;3.83;;;4.80;99.90;;;5.90;89.23;100172.41;5026246;28;20034;-82
2021/04/11 10:31:54;;;;;;;3.60;3.28;;;4.80;99.90;;;5.87;88.38;100178.63;5019780;28;20040;-86
2021/04/11 10:35:17;;;;;;;7.13;3.80;;;4.90;99.90;;;5.89;88.60;100189.38;4998840;28;20030;-83
2021/04/11 10:37:51;;;;;;;2.85;2.58;;;4.90;99.90;;;5.85;88.40;100194.75;4996534;28;20045;-84
2021/04/11 10:41:04;;;;;;;3.40;3.10;;;4.80;99.90;;;6.01;88.70;100208.81;5012488;28;20125;-83
2021/04/11 10:44:15;;;;;;;3.58;3.28;;;4.90;99.90;;;6.00;87.70;100202.50;5012348;28;20182;-85
2021/04/11 10:47:09;;;;;;;3.60;2.88;;;5.00;99.90;;;6.04;88.91;100208.16;5012190;28;20132;-86
2021/04/11 10:51:04;;;;;;;3.63;2.65;;;5.00;99.90;;;6.27;88.62;100201.09;5028721;28;20132;-83
2021/04/11 10:53:47;;;;;;;3.35;2.42;;;5.10;99.90;;;6.40;88.66;100208.31;4999085;28;20112;-85
2021/04/11 10:56:56;;;;;;;3.03;1.60;;;5.30;99.90;;;6.32;86.65;100207.25;5012539;28;20030;-85
2021/04/11 11:00:35;;;;;;;2.25;1.88;;;5.30;99.90;;;6.23;87.32;100216.78;5013660;28;20057;-85
2021/04/11 11:03:56;;;;;;;2.33;1.80;;;5.20;99.90;;;6.01;87.40;100223.50;5019542;28;20053;-83
2021/04/11 11:07:15;;;;;;;5.18;2.20;;;5.00;99.90;;;6.08;88.14;100231.28;5013544;28;20026;-85
2021/04/11 11:10:04;;;;;;;2.38;1.80;;;5.00;99.90;;;6.09;87.32;100230.13;4994027;28;20039;-88
2021/04/11 11:13:04;;;;;;;2.25;1.60;;;5.00;99.90;;;6.11;87.01;100255.56;4993259;28;20038;-83
2021/04/11 11:16:41;;;;;;;2.00;1.80;;;5.00;99.90;;;6.18;88.12;100248.34;4992806;28;20076;-85
2021/04/11 11:19:56;;;;;;;1.83;1.48;;;5.00;99.90;;;6.12;86.67;100248.88;4992331;28;20029;-84
2021/04/11 11:23:12;;;;;;;4.10;2.00;;;5.10;99.90;;;6.12;87.98;100251.66;4992106;28;20097;-85
2021/04/11 11:26:32;;;;;;;4.53;2.63;;;5.00;99.90;;;6.17;88.20;100241.16;4992831;28;20140;-84
2021/04/11 11:29:32;;;;;;;9.15;5.25;;;5.10;99.90;;;6.22;87.42;100257.59;4994125;28;20026;-86
2021/04/11 11:32:20;;;;;;;7.45;5.30;;;5.10;99.90;;;6.25;87.69;100267.19;4993285;28;20041;-87
2021/04/11 11:35:09;;;;;;;3.83;2.65;;;5.20;99.90;;;6.08;86.30;100273.69;5002788;28;20039;-84
2021/04/11 11:37:52;;;;;;;2.90;2.60;;;5.10;99.90;;;6.08;86.84;100270.09;5028094;28;20044;-86
2021/04/11 11:40:59;;;;;;;2.67;2.13;;;5.10;99.90;;;6.09;85.88;100271.72;5023408;28;20030;-84
2021/04/11 11:43:51;;;;;;;2.45;2.20;;;5.00;99.90;;;6.15;86.05;100267.59;5016592;28;20026;-85
2021/04/11 11:46:45;;;;;;;3.80;2.20;;;5.10;99.90;;;6.30;86.06;100270.56;4993902;28;20117;-86
2021/04/11 11:49:46;;;;;;;3.97;2.60;;;5.20;99.90;;;6.35;86.38;100278.72;5012003;28;20018;-77
2021/04/11 11:52:53;;;;;;;3.30;2.55;;;5.30;99.90;;;6.44;85.38;100278.63;5000018;28;20495;-85
2021/04/11 11:55:28;;;;;;;;;;;5.30;99.90;;;6.68;85.51;100289.00;5009536;28;20023;-87
2021/04/11 11:58:09;;;;;;;2.75;2.00;;;5.40;99.90;;;6.65;85.50;100290.50;4995132;28;20345;-85
2021/04/11 12:00:44;;;;;;;3.38;2.40;;;5.50;99.90;;;6.55;84.98;100298.44;4999924;28;20505;-86
2021/04/11 12:03:33;;;;;;;2.83;2.35;;;5.40;99.90;;;6.55;86.53;100302.00;5002639;28;20034;-84